Time,TemperatureF,DewpointF,PressureIn,WindDirection,WindDirectionDegrees,WindSpeedMPH,WindSpeedGustMPH,Humidity,HourlyPrecipIn,Conditions,Clouds,dailyrainin,SoftwareType,DateUTC
2013-07-24 00:01:00,72.4,68.3,29.51,North,0,0.0,0.0,87,0.00,,,0.00,WUHU216HW,2013-07-24 04:01:00,
2013-07-24 00:03:00,72.4,68.3,29.51,North,0,0.0,0.0,87,0.00,,,0.00,WUHU216HW,2013-07-24 04:03:00,
2013-07-24 00:08:00,72.4,68.3,29.51,North,0,0.0,0.0,87,0.00,,,0.00,WUHU216HW,2013-07-24 04:08:00,
2013-07-24 00:28:00,72.5,68.8,29.51,North,0,0.0,0.0,88,0.00,,,0.00,WUHU216HW,2013-07-24 04:28:00,
2013-07-24 00:33:00,72.5,68.8,29.51,North,0,0.0,0.0,88,0.00,,,0.00,WUHU216HW,2013-07-24 04:33:00,
2013-07-24 00:58:00,72.2,68.1,29.51,North,0,0.0,0.0,87,0.00,,,0.00,WUHU216HW,2013-07-24 04:58:00,
2013-07-24 01:03:00,72.2,68.1,29.51,North,0,0.0,0.0,87,0.00,,,0.00,WUHU216HW,2013-07-24 05:03:00,
2013-07-24 01:28:00,71.8,68.0,29.51,North,0,0.0,0.0,88,0.00,,,0.00,WUHU216HW,2013-07-24 05:28:00,
2013-07-24 01:33:00,71.8,68.0,29.51,North,0,0.0,0.0,88,0.00,,,0.00,WUHU216HW,2013-07-24 05:33:00,
2013-07-24 01:58:00,71.6,68.2,29.51,North,0,0.0,0.0,89,0.00,,,0.00,WUHU216HW,2013-07-24 05:58:00,
2013-07-24 02:03:00,71.6,68.2,29.51,North,0,0.0,0.0,89,0.00,,,0.00,WUHU216HW,2013-07-24 06:03:00,
2013-07-24 02:04:00,71.6,68.2,29.51,North,0,0.0,0.0,89,0.00,,,0.00,WUHU216HW,2013-07-24 06:04:00,
2013-07-24 02:28:00,70.7,67.0,29.50,North,0,0.0,0.0,88,0.00,,,0.00,WUHU216HW,2013-07-24 06:28:00,
2013-07-24 02:33:00,70.7,67.0,29.50,North,0,0.0,0.0,88,0.00,,,0.00,WUHU216HW,2013-07-24 06:33:00,
2013-07-24 02:58:00,69.7,66.2,29.50,North,0,0.0,0.0,89,0.00,,,0.00,WUHU216HW,2013-07-24 06:58:00,
2013-07-24 03:03:00,69.7,66.2,29.50,North,0,0.0,0.0,89,0.00,,,0.00,WUHU216HW,2013-07-24 07:03:00,
2013-07-24 03:28:00,69.5,66.7,29.50,North,0,0.0,0.0,91,0.00,,,0.00,WUHU216HW,2013-07-24 07:28:00,
2013-07-24 03:33:00,69.5,66.7,29.50,North,0,0.0,0.0,91,0.00,,,0.00,WUHU216HW,2013-07-24 07:33:00,
2013-07-24 03:58:00,69.3,66.2,29.50,North,0,0.0,0.0,90,0.00,,,0.00,WUHU216HW,2013-07-24 07:58:00,
2013-07-24 04:03:00,69.3,66.2,29.50,North,0,0.0,0.0,90,0.00,,,0.00,WUHU216HW,2013-07-24 08:03:00,
2013-07-24 04:28:00,69.8,65.4,29.50,North,0,0.0,0.0,86,0.00,,,0.00,WUHU216HW,2013-07-24 08:28:00,
2013-07-24 04:33:00,69.8,65.4,29.50,North,0,0.0,0.0,86,0.00,,,0.00,WUHU216HW,2013-07-24 08:33:00,
2013-07-24 04:58:00,69.8,65.4,29.50,North,0,0.0,0.0,86,0.00,,,0.00,WUHU216HW,2013-07-24 08:58:00,
2013-07-24 05:03:00,69.8,65.4,29.50,North,0,0.0,0.0,86,0.00,,,0.00,WUHU216HW,2013-07-24 09:03:00,
2013-07-24 05:28:00,70.0,64.9,29.52,North,0,0.0,0.0,84,0.00,,,0.00,WUHU216HW,2013-07-24 09:28:00,
2013-07-24 05:33:00,70.0,64.9,29.52,North,0,0.0,0.0,84,0.00,,,0.00,WUHU216HW,2013-07-24 09:33:00,
2013-07-24 05:58:00,69.3,64.5,29.53,North,0,0.0,0.0,85,0.00,,,0.00,WUHU216HW,2013-07-24 09:58:00,
2013-07-24 06:03:00,69.3,64.5,29.53,North,0,0.0,0.0,85,0.00,,,0.00,WUHU216HW,2013-07-24 10:03:00,
2013-07-24 06:28:00,69.5,64.7,29.54,North,0,0.0,0.0,85,0.00,,,0.00,WUHU216HW,2013-07-24 10:28:00,
2013-07-24 06:33:00,69.5,64.7,29.54,North,0,0.0,0.0,85,0.00,,,0.00,WUHU216HW,2013-07-24 10:33:00,
2013-07-24 06:58:00,70.6,65.4,29.54,North,0,0.0,0.0,84,0.00,,,0.00,WUHU216HW,2013-07-24 10:58:00,
2013-07-24 07:03:00,70.6,65.4,29.54,North,0,0.0,0.0,84,0.00,,,0.00,WUHU216HW,2013-07-24 11:03:00,
2013-07-24 07:28:00,74.5,68.0,29.56,North,0,0.0,0.0,80,0.00,,,0.00,WUHU216HW,2013-07-24 11:28:00,
2013-07-24 07:33:00,74.5,68.0,29.56,North,0,0.0,0.0,80,0.00,,,0.00,WUHU216HW,2013-07-24 11:33:00,
2013-07-24 07:58:00,81.0,68.1,29.56,North,0,0.0,0.0,65,0.00,,,0.00,WUHU216HW,2013-07-24 11:58:00,
2013-07-24 08:03:00,81.0,68.1,29.56,North,0,0.0,0.0,65,0.00,,,0.00,WUHU216HW,2013-07-24 12:03:00,
2013-07-24 08:28:00,77.9,67.0,29.57,North,0,0.0,0.0,69,0.00,,,0.00,WUHU216HW,2013-07-24 12:28:00,
2013-07-24 08:33:00,77.9,67.0,29.57,North,0,0.0,0.0,69,0.00,,,0.00,WUHU216HW,2013-07-24 12:33:00,
2013-07-24 08:58:00,77.0,66.6,29.58,North,0,0.0,0.0,70,0.00,,,0.00,WUHU216HW,2013-07-24 12:58:00,
2013-07-24 09:03:00,77.0,66.6,29.58,North,0,0.0,0.0,70,0.00,,,0.00,WUHU216HW,2013-07-24 13:03:00,
2013-07-24 09:28:00,77.9,67.4,29.59,North,0,0.0,0.0,70,0.00,,,0.00,WUHU216HW,2013-07-24 13:28:00,
2013-07-24 09:33:00,77.9,67.4,29.59,North,0,0.0,0.0,70,0.00,,,0.00,WUHU216HW,2013-07-24 13:33:00,
2013-07-24 09:58:00,79.4,67.9,29.60,North,0,0.0,0.0,68,0.00,,,0.00,WUHU216HW,2013-07-24 13:58:00,
2013-07-24 10:03:00,79.4,67.9,29.60,North,0,0.0,0.0,68,0.00,,,0.00,WUHU216HW,2013-07-24 14:03:00,
2013-07-24 10:28:00,79.6,68.0,29.61,North,0,0.0,0.0,68,0.00,,,0.00,WUHU216HW,2013-07-24 14:28:00,
2013-07-24 10:33:00,79.6,68.0,29.61,North,0,0.0,0.0,68,0.00,,,0.00,WUHU216HW,2013-07-24 14:33:00,
2013-07-24 10:58:00,80.5,68.5,29.62,North,0,0.0,0.0,67,0.00,,,0.00,WUHU216HW,2013-07-24 14:58:00,
2013-07-24 11:03:00,80.5,68.5,29.62,North,0,0.0,0.0,67,0.00,,,0.00,WUHU216HW,2013-07-24 15:03:00,
2013-07-24 11:28:00,79.7,67.8,29.62,North,0,0.0,0.0,67,0.00,,,0.00,WUHU216HW,2013-07-24 15:28:00,
2013-07-24 11:33:00,79.7,67.8,29.62,North,0,0.0,0.0,67,0.00,,,0.00,WUHU216HW,2013-07-24 15:33:00,
2013-07-24 11:58:00,77.4,67.0,29.64,North,0,0.0,0.0,70,0.00,,,0.00,WUHU216HW,2013-07-24 15:58:00,
2013-07-24 12:03:00,77.4,67.0,29.64,North,0,0.0,0.0,70,0.00,,,0.00,WUHU216HW,2013-07-24 16:03:00,
2013-07-24 12:28:00,77.0,65.3,29.64,North,0,0.0,0.0,67,0.00,,,0.00,WUHU216HW,2013-07-24 16:28:00,
2013-07-24 12:33:00,77.0,65.3,29.64,North,0,0.0,0.0,67,0.00,,,0.00,WUHU216HW,2013-07-24 16:33:00,
2013-07-24 12:58:00,78.5,65.7,29.64,North,0,0.0,0.0,65,0.00,,,0.00,WUHU216HW,2013-07-24 16:58:00,
2013-07-24 13:03:00,78.5,65.7,29.64,North,0,0.0,0.0,65,0.00,,,0.00,WUHU216HW,2013-07-24 17:03:00,
2013-07-24 13:28:00,79.9,65.8,29.64,North,0,0.0,0.0,62,0.00,,,0.00,WUHU216HW,2013-07-24 17:28:00,
2013-07-24 13:33:00,79.9,65.8,29.64,North,0,0.0,0.0,62,0.00,,,0.00,WUHU216HW,2013-07-24 17:33:00,
2013-07-24 13:58:00,79.9,65.4,29.65,North,0,0.0,0.0,61,0.00,,,0.00,WUHU216HW,2013-07-24 17:58:00,
2013-07-24 14:03:00,79.9,65.4,29.65,North,0,0.0,0.0,61,0.00,,,0.00,WUHU216HW,2013-07-24 18:03:00,
2013-07-24 14:28:00,80.3,64.7,29.65,North,0,0.0,0.0,59,0.00,,,0.00,WUHU216HW,2013-07-24 18:28:00,
2013-07-24 14:30:00,80.3,64.7,29.65,North,0,0.0,0.0,59,0.00,,,0.00,WUHU216HW,2013-07-24 18:30:00,
2013-07-24 14:35:00,80.3,64.7,29.65,North,0,0.0,0.0,59,0.00,,,0.00,WUHU216HW,2013-07-24 18:35:00,
2013-07-24 14:58:00,79.6,64.0,29.66,North,0,0.0,0.0,59,0.00,,,0.00,WUHU216HW,2013-07-24 18:58:00,
2013-07-24 15:03:00,79.6,64.0,29.66,North,0,0.0,0.0,59,0.00,,,0.00,WUHU216HW,2013-07-24 19:03:00,
2013-07-24 15:58:00,80.6,65.0,29.66,North,0,0.0,0.0,59,0.00,,,0.00,WUHU216HW,2013-07-24 19:58:00,
2013-07-24 16:03:00,80.6,65.0,29.66,North,0,0.0,0.0,59,0.00,,,0.00,WUHU216HW,2013-07-24 20:03:00,
2013-07-24 16:28:00,80.3,64.7,29.66,North,0,0.0,0.0,59,0.00,,,0.00,WUHU216HW,2013-07-24 20:28:00,
2013-07-24 16:33:00,80.3,64.7,29.66,North,0,0.0,0.0,59,0.00,,,0.00,WUHU216HW,2013-07-24 20:33:00,
2013-07-24 16:58:00,80.6,63.5,29.66,North,0,0.0,0.0,56,0.00,,,0.00,WUHU216HW,2013-07-24 20:58:00,
2013-07-24 17:03:00,80.6,63.5,29.66,North,0,0.0,0.0,56,0.00,,,0.00,WUHU216HW,2013-07-24 21:03:00,
2013-07-24 17:28:00,84.2,65.3,29.66,North,0,0.0,0.0,53,0.00,,,0.00,WUHU216HW,2013-07-24 21:28:00,
2013-07-24 17:33:00,84.2,65.3,29.66,North,0,0.0,0.0,53,0.00,,,0.00,WUHU216HW,2013-07-24 21:33:00,
2013-07-24 17:58:00,81.4,62.0,29.67,North,0,0.0,0.0,52,0.00,,,0.00,WUHU216HW,2013-07-24 21:58:00,
2013-07-24 18:03:00,81.4,62.0,29.67,North,0,0.0,0.0,52,0.00,,,0.00,WUHU216HW,2013-07-24 22:03:00,
2013-07-24 18:28:00,83.9,64.9,29.67,North,0,0.0,0.0,53,0.00,,,0.00,WUHU216HW,2013-07-24 22:28:00,
2013-07-24 18:33:00,83.9,64.9,29.67,North,0,0.0,0.0,53,0.00,,,0.00,WUHU216HW,2013-07-24 22:33:00,
2013-07-24 18:58:00,81.2,60.8,29.67,North,0,0.0,0.0,50,0.00,,,0.00,WUHU216HW,2013-07-24 22:58:00,
2013-07-24 19:03:00,81.2,60.8,29.67,North,0,0.0,0.0,50,0.00,,,0.00,WUHU216HW,2013-07-24 23:03:00,
2013-07-24 19:28:00,76.9,59.4,29.69,North,0,0.0,0.0,55,0.00,,,0.00,WUHU216HW,2013-07-24 23:28:00,
2013-07-24 19:33:00,76.9,59.4,29.69,North,0,0.0,0.0,55,0.00,,,0.00,WUHU216HW,2013-07-24 23:33:00,
2013-07-24 19:58:00,74.0,59.2,29.71,North,0,0.0,0.0,60,0.00,,,0.00,WUHU216HW,2013-07-24 23:58:00,
2013-07-24 20:03:00,74.0,59.2,29.71,North,0,0.0,0.0,60,0.00,,,0.00,WUHU216HW,2013-07-25 00:03:00,
2013-07-24 20:28:00,71.6,57.1,29.72,North,0,0.0,0.0,60,0.00,,,0.00,WUHU216HW,2013-07-25 00:28:00,
2013-07-24 20:33:00,71.6,57.1,29.72,North,0,0.0,0.0,60,0.00,,,0.00,WUHU216HW,2013-07-25 00:33:00,
2013-07-24 20:58:00,70.0,56.0,29.74,North,0,0.0,0.0,61,0.00,,,0.00,WUHU216HW,2013-07-25 00:58:00,
2013-07-24 21:03:00,70.0,56.0,29.74,North,0,0.0,0.0,61,0.00,,,0.00,WUHU216HW,2013-07-25 01:03:00,
2013-07-24 21:28:00,68.4,55.3,29.76,North,0,0.0,0.0,63,0.00,,,0.00,WUHU216HW,2013-07-25 01:28:00,
2013-07-24 21:33:00,68.4,55.3,29.76,North,0,0.0,0.0,63,0.00,,,0.00,WUHU216HW,2013-07-25 01:33:00,
2013-07-24 21:58:00,67.0,55.6,29.77,North,0,0.0,0.0,67,0.00,,,0.00,WUHU216HW,2013-07-25 01:58:00,
2013-07-24 22:03:00,67.0,55.6,29.77,North,0,0.0,0.0,67,0.00,,,0.00,WUHU216HW,2013-07-25 02:03:00,
2013-07-24 22:28:00,65.9,55.5,29.78,North,0,0.0,0.0,69,0.00,,,0.00,WUHU216HW,2013-07-25 02:28:00,
2013-07-24 22:33:00,65.9,55.5,29.78,North,0,0.0,0.0,69,0.00,,,0.00,WUHU216HW,2013-07-25 02:33:00,
2013-07-24 22:58:00,64.4,54.9,29.80,North,0,0.0,0.0,71,0.00,,,0.00,WUHU216HW,2013-07-25 02:58:00,
2013-07-24 23:03:00,64.4,54.9,29.80,North,0,0.0,0.0,71,0.00,,,0.00,WUHU216HW,2013-07-25 03:03:00,
2013-07-24 23:28:00,63.5,54.4,29.80,North,0,0.0,0.0,72,0.00,,,0.00,WUHU216HW,2013-07-25 03:28:00,
2013-07-24 23:33:00,63.5,54.4,29.80,North,0,0.0,0.0,72,0.00,,,0.00,WUHU216HW,2013-07-25 03:33:00,
2013-07-24 23:58:00,63.5,54.0,29.80,North,0,0.0,0.0,71,0.00,,,0.00,WUHU216HW,2013-07-25 03:58:00,